Grand Forks, North Dakota
Current Conditions -  °F | °C
As of 5:53 AM on Friday 24 Oct 2014 (Local Time) from KGFK Reporting Station
Clear Clear  
Wind Chill:   Ceiling: Unl
Heat Index:   Visibility: 10mi
Dew Point:   Wind: 7mph
Humidity: 83%   Direction: 200°SSW
Pressure: 29.74"   Gusts: NA
Location:  47.92°N, 97.03°W
Report Text: KGFK 241053Z 20006KT 10SM CLR 04/02 A2974 RMK AO2 SLP075 T00440017
Loading
Personal Weather Stations






























Interactive Weather Map
Tropical Storm Tracking
New forecast layout! Learn more

10-Day Weather Forecast

Advertisements
Track Severe Weather on mobile